Time;durP1;ratioP1;P1;durP2;ratioP2;P2;SDS_P1;SDS_P2;PMS_P1;PMS_P2;Temp;Humidity;BMP_temperature;BMP_pressure;BME280_temperature;BME280_humidity;BME280_pressure;Samples;Min_cycle;Max_cycle;Signal;HPM_P1;HPM_P2
2022/06/17 00:00:53;;;;;;;2.40;2.20;;;;;;;14.82;100.00;102502.19;5002182;28;20502;-67
2022/06/17 00:03:20;;;;;;;6.90;2.67;;;;;;;14.77;100.00;102488.38;5000775;28;20460;-67
2022/06/17 00:05:46;;;;;;;2.37;2.23;;;;;;;14.81;100.00;102501.34;5003979;28;20915;-67
2022/06/17 00:08:18;;;;;;;3.80;3.10;;;;;;;14.70;100.00;102496.41;5002946;28;20927;-67
2022/06/17 00:10:44;;;;;;;3.63;3.20;;;;;;;14.76;100.00;102500.22;5000933;28;20463;-67
2022/06/17 00:13:15;;;;;;;2.53;2.33;;;;;;;14.74;100.00;102496.88;5000550;28;20459;-67
2022/06/17 00:15:41;;;;;;;3.57;3.20;;;;;;;14.39;100.00;102432.56;4997065;28;21159;-67
2022/06/17 00:18:06;;;;;;;3.43;2.83;;;;;;;14.81;100.00;102498.66;5001606;28;20471;-67
2022/06/17 00:20:34;;;;;;;5.50;3.20;;;;;;;14.61;100.00;102473.19;5004508;28;20808;-67
2022/06/17 00:23:00;;;;;;;5.43;3.70;;;;;;;14.86;100.00;102503.47;5001536;28;20720;-67
2022/06/17 00:25:27;;;;;;;3.20;2.90;;;;;;;14.75;100.00;102498.53;4994824;28;20462;-67
2022/06/17 00:27:54;;;;;;;3.37;3.07;;;;;;;14.64;100.00;102498.00;4998951;28;20888;-67
2022/06/17 00:30:24;;;;;;;4.83;3.30;;;;;;;14.50;100.00;102449.34;4999274;28;20713;-66
2022/06/17 00:33:01;;;;;;;3.87;3.53;;;;;;;14.87;100.00;102515.97;5001578;28;20493;-66
2022/06/17 00:35:31;;;;;;;3.47;3.17;;;;;;;14.76;100.00;102511.03;5003025;28;20459;-67
2022/06/17 00:37:58;;;;;;;3.87;3.50;;;;;;;14.67;100.00;102505.72;5002760;28;20464;-66
2022/06/17 00:40:26;;;;;;;3.90;3.60;;;;;;;14.72;100.00;102512.41;5002130;28;20458;-67
2022/06/17 00:42:52;;;;;;;4.47;3.70;;;;;;;14.77;100.00;102516.22;5003729;28;20470;-67
2022/06/17 00:45:26;;;;;;;4.57;3.87;;;;;;;14.74;100.00;102505.81;5001737;28;20456;-67
2022/06/17 00:48:02;;;;;;;4.30;3.20;;;;;;;14.31;100.00;102440.75;5002201;28;20211;-67
2022/06/17 00:50:38;;;;;;;3.70;3.40;;;;;;;14.50;100.00;102477.19;4997658;28;20478;-67
2022/06/17 00:53:07;;;;;;;4.10;3.43;;;;;;;14.42;100.00;102461.91;5000218;28;20499;-66
2022/06/17 00:55:37;;;;;;;4.40;3.13;;;;;;;14.63;100.00;102501.69;5003292;28;20444;-66
2022/06/17 00:58:13;;;;;;;3.50;2.80;;;;;;;14.69;100.00;102497.41;5004169;28;20467;-67
2022/06/17 01:00:38;;;;;;;5.80;4.97;;;;;;;14.59;100.00;102505.78;5000262;28;20529;-66
2022/06/17 01:03:10;;;;;;;3.50;3.20;;;;;;;14.60;100.00;102498.53;5001400;28;20459;-66
2022/06/17 01:05:47;;;;;;;5.20;3.70;;;;;;;14.53;100.00;102493.03;5007264;28;20594;-67
2022/06/17 01:11:18;;;;;;;7.27;5.70;;;;;;;14.59;100.00;102500.41;5002549;28;20490;-67
2022/06/17 01:13:48;;;;;;;4.77;4.37;;;;;;;14.63;100.00;102509.78;5001704;28;20954;-67
2022/06/17 01:16:15;;;;;;;4.60;4.17;;;;;;;14.60;100.00;102510.16;5003100;28;20447;-67
2022/06/17 01:18:44;;;;;;;5.00;3.97;;;;;;;14.67;100.00;102503.00;4999912;28;20625;-67
2022/06/17 01:21:43;;;;;;;5.80;4.67;;;;;;;14.59;100.00;102505.78;5002418;28;20470;-67
2022/06/17 01:24:10;;;;;;;4.60;4.20;;;;;;;14.49;100.00;102505.19;5003521;28;20492;-67
2022/06/17 01:26:36;;;;;;;4.80;4.30;;;;;;;14.51;100.00;102505.00;5002946;28;20440;-66
2022/06/17 01:29:01;;;;;;;5.43;4.50;;;;;;;14.47;100.00;102507.25;5000883;28;20558;-67
2022/06/17 01:31:28;;;;;;;4.40;4.00;;;;;;;14.37;100.00;102488.59;4999610;28;20443;-67
2022/06/17 01:33:54;;;;;;;5.10;4.43;;;;;;;14.32;100.00;102487.47;5002132;28;20193;-67
2022/06/17 01:36:25;;;;;;;4.67;3.90;;;;;;;14.37;100.00;102502.09;5006049;28;20487;-67
2022/06/17 01:38:54;;;;;;;5.20;4.70;;;;;;;14.39;100.00;102510.03;5001717;28;20220;-67
2022/06/17 01:41:25;;;;;;;9.30;5.37;;;;;;;14.50;100.00;102496.06;4998623;28;20440;-67
2022/06/17 01:44:00;;;;;;;6.47;5.00;;;;;;;14.46;100.00;102494.75;5002447;28;20556;-67
2022/06/17 01:46:33;;;;;;;5.30;4.60;;;;;;;14.42;100.00;102499.69;4999162;28;20469;-67
2022/06/17 01:49:12;;;;;;;4.50;4.10;;;;;;;14.46;100.00;102492.91;5001103;28;20468;-67
2022/06/17 01:51:44;;;;;;;4.37;3.97;;;;;;;14.40;100.00;102490.09;5000880;28;21927;-67
2022/06/17 01:54:15;;;;;;;5.10;4.40;;;;;;;14.40;100.00;102506.28;5001065;28;20469;-67
2022/06/17 01:56:44;;;;;;;5.10;4.57;;;;;;;14.36;100.00;102500.44;4998944;28;20870;-67
2022/06/17 01:59:15;;;;;;;5.23;4.53;;;;;;;14.02;100.00;102449.63;5014225;28;22294;-67
2022/06/17 02:01:45;;;;;;;6.47;4.47;;;;;;;14.33;100.00;102500.78;4999656;28;20539;-67
2022/06/17 02:04:14;;;;;;;6.30;4.40;;;;;;;14.44;100.00;102499.53;4998970;28;20483;-67
2022/06/17 02:06:46;;;;;;;5.33;4.67;;;;;;;14.48;100.00;102493.56;5006031;28;20518;-67
2022/06/17 02:09:12;;;;;;;6.00;4.80;;;;;;;14.29;100.00;102472.50;5002298;28;20460;-65
2022/06/17 02:11:38;;;;;;;4.90;4.40;;;;;;;13.92;100.00;102414.81;5001418;28;20539;-66
2022/06/17 02:14:07;;;;;;;4.67;4.13;;;;;;;14.43;100.00;102493.25;5002778;28;20435;-65
2022/06/17 02:16:41;;;;;;;5.03;4.63;;;;;;;14.14;100.00;102444.63;4998470;28;20200;-65
2022/06/17 02:19:07;;;;;;;6.80;4.40;;;;;;;14.40;100.00;102496.31;5000117;28;20466;-66
2022/06/17 02:21:38;;;;;;;5.33;4.60;;;;;;;14.37;100.00;102510.19;5005295;28;20943;-65
2022/06/17 02:24:04;;;;;;;5.23;4.73;;;;;;;14.15;100.00;102467.91;5003281;28;20469;-66
2022/06/17 02:26:33;;;;;;;6.67;3.87;;;;;;;14.16;100.00;102470.41;5000070;28;20535;-66
2022/06/17 02:29:06;;;;;;;5.00;4.07;;;;;;;14.37;100.00;102493.16;5002402;28;20463;-66
2022/06/17 02:31:33;;;;;;;4.70;4.20;;;;;;;13.92;100.00;102422.91;4998433;28;21362;-65
2022/06/17 02:33:58;;;;;;;4.60;4.20;;;;;;;14.31;100.00;102489.34;5000217;28;20803;-65
2022/06/17 02:37:02;;;;;;;4.47;4.07;;;;;;;14.29;100.00;102485.13;5000543;28;20456;-66
2022/06/17 02:39:28;;;;;;;5.30;4.30;;;;;;;14.25;100.00;102482.81;5001276;28;20263;-66
2022/06/17 02:41:54;;;;;;;4.70;4.30;;;;;;;14.32;100.00;102479.38;4997676;28;20435;-66
2022/06/17 02:44:33;;;;;;;5.73;4.60;;;;;;;14.29;100.00;102486.00;4997760;28;20197;-66
2022/06/17 02:47:01;;;;;;;4.50;4.10;;;;;;;13.96;100.00;102426.09;5004731;28;26060;-66
2022/06/17 02:49:30;;;;;;;6.00;4.53;;;;;;;14.22;100.00;102483.19;5003251;28;20514;-66
2022/06/17 02:51:58;;;;;;;6.73;4.23;;;;;;;14.33;100.00;102489.16;5004253;28;20809;-66
2022/06/17 02:54:38;;;;;;;5.67;4.60;;;;;;;14.29;100.00;102493.22;5003226;28;20431;-66
2022/06/17 02:57:08;;;;;;;5.80;4.33;;;;;;;14.21;100.00;102476.09;5002923;28;20440;-66
2022/06/17 02:59:48;;;;;;;4.93;4.43;;;;;;;14.32;100.00;102484.75;5003554;28;21014;-65
2022/06/17 03:02:28;;;;;;;10.53;4.40;;;;;;;14.24;100.00;102486.53;5002075;28;20479;-65
2022/06/17 03:04:54;;;;;;;4.40;4.07;;;;;;;14.17;100.00;102482.03;5003660;28;20510;-65
2022/06/17 03:07:23;;;;;;;4.77;4.30;;;;;;;13.88;100.00;102426.97;5005059;28;20464;-66
2022/06/17 03:09:49;;;;;;;5.83;4.23;;;;;;;13.87;100.00;102428.00;5011625;28;20223;-65
2022/06/17 03:12:34;;;;;;;4.40;4.00;;;;;;;14.16;100.00;102470.41;5004502;28;20467;-65
2022/06/17 03:14:59;;;;;;;5.00;4.37;;;;;;;14.16;100.00;102470.41;5003947;28;20448;-65
2022/06/17 03:17:25;;;;;;;6.30;4.50;;;;;;;14.14;100.00;102469.75;5001881;28;21086;-65
2022/06/17 03:19:54;;;;;;;5.40;4.90;;;;;;;14.05;100.00;102473.53;5002390;28;20185;-65
2022/06/17 03:22:20;;;;;;;4.70;4.10;;;;;;;13.54;100.00;102398.63;5003836;28;20205;-65
2022/06/17 03:24:55;;;;;;;4.93;4.43;;;;;;;14.08;100.00;102461.56;5003623;28;20466;-65
2022/06/17 03:27:47;;;;;;;6.33;5.07;;;;;;;14.11;100.00;102461.19;5004244;28;20463;-65
2022/06/17 03:30:20;;;;;;;4.67;4.20;;;;;;;14.15;100.00;102470.63;5000549;28;20478;-67
2022/06/17 03:33:17;;;;;;;5.73;5.13;;;;;;;14.11;100.00;102472.81;5003794;28;20444;-68
2022/06/17 03:35:44;;;;;;;6.20;5.57;;;;;;;14.08;100.00;102475.88;5008044;28;20451;-68
2022/06/17 03:38:24;;;;;;;5.07;4.27;;;;;;;14.02;100.00;102463.97;5006001;28;20511;-68
2022/06/17 03:40:54;;;;;;;7.00;5.00;;;;;;;14.14;100.00;102471.63;5004183;28;20450;-67
2022/06/17 03:43:45;;;;;;;6.97;5.20;;;;;;;14.20;100.00;102468.19;5004824;28;20535;-67
2022/06/17 03:46:11;;;;;;;4.97;4.47;;;;;;;13.84;100.00;102446.44;5008529;28;20443;-67
2022/06/17 03:49:20;;;;;;;6.07;5.47;;;;;;;14.13;100.00;102470.78;5002830;28;20847;-67
2022/06/17 03:51:51;;;;;;;6.93;5.60;;;;;;;14.13;100.00;102478.03;5005706;28;20451;-65
2022/06/17 03:54:16;;;;;;;5.30;4.70;;;;;;;14.14;100.00;102468.91;5005789;28;20444;-67
2022/06/17 03:56:47;;;;;;;6.23;5.60;;;;;;;14.22;100.00;102474.25;5007099;28;20455;-65
2022/06/17 03:59:18;;;;;;;7.10;5.33;;;;;;;14.21;100.00;102467.19;5007741;28;20227;-65
2022/06/17 04:01:47;;;;;;;7.03;5.77;;;;;;;14.12;100.00;102460.19;5008433;28;20439;-65
2022/06/17 04:04:23;;;;;;;7.33;5.50;;;;;;;14.32;100.00;102487.47;5007738;28;20525;-65
2022/06/17 04:06:53;;;;;;;6.57;5.80;;;;;;;14.24;100.00;102486.53;5008583;28;20497;-65
2022/06/17 04:09:24;;;;;;;6.63;6.03;;;;;;;14.26;100.00;102480.94;5007867;28;20555;-65
2022/06/17 04:11:54;;;;;;;6.73;4.97;;;;;;;14.40;100.00;102476.59;5005481;28;20454;-65
2022/06/17 04:14:30;;;;;;;6.33;5.30;;;;;;;14.22;100.00;102485.03;5007269;28;20431;-65
2022/06/17 04:17:11;;;;;;;11.03;6.13;;;;;;;14.38;100.00;102484.06;5002422;28;20438;-65
2022/06/17 04:19:37;;;;;;;5.17;4.67;;;;;;;14.44;100.00;102472.53;5006743;28;21019;-65
2022/06/17 04:22:13;;;;;;;6.73;5.30;;;;;;;14.51;100.00;102472.63;5007231;28;20488;-65
2022/06/17 04:24:40;;;;;;;7.10;5.50;;;;;;;14.54;100.00;102477.66;5005734;28;20529;-65
2022/06/17 04:27:07;;;;;;;6.63;5.50;;;;;;;14.62;100.00;102459.53;5007053;28;20856;-66
2022/06/17 04:29:47;;;;;;;9.47;5.83;;;;;;;14.52;100.00;102455.41;5004947;28;20447;-65
2022/06/17 04:32:19;;;;;;;6.50;5.30;;;;;;;14.77;100.00;102477.59;5010288;28;20434;-65
2022/06/17 04:34:44;;;;;;;5.23;4.70;;;;;;;14.87;100.00;102465.47;5009019;28;20486;-65
2022/06/17 04:37:19;;;;;;;5.30;4.80;;;;;;;14.96;100.00;102465.38;5007498;28;20440;-65
2022/06/17 04:39:55;;;;;;;6.10;4.40;;;;;;;15.03;100.00;102469.81;5008706;28;20260;-65
2022/06/17 04:42:27;;;;;;;5.20;4.40;;;;;;;15.00;100.00;102455.88;5007551;28;20891;-65
2022/06/17 04:44:52;;;;;;;6.03;4.63;;;;;;;14.77;100.00;102424.41;5013655;28;20832;-65
2022/06/17 04:47:20;;;;;;;5.70;5.20;;;;;;;15.00;100.00;102467.50;5004033;28;20513;-68
2022/06/17 04:49:52;;;;;;;7.80;5.10;;;;;;;15.07;100.00;102473.84;5005326;28;20182;-65
2022/06/17 04:52:41;;;;;;;7.20;5.50;;;;;;;15.09;100.00;102474.47;4996289;28;20433;-65
2022/06/17 04:55:14;;;;;;;7.23;6.10;;;;;;;15.04;100.00;102468.81;4994765;28;20432;-65
2022/06/17 04:57:41;;;;;;;6.50;5.17;;;;;;;15.02;100.00;102465.47;5000934;28;20468;-65
2022/06/17 05:00:07;;;;;;;6.87;5.20;;;;;;;15.01;100.00;102463.75;4999298;28;20436;-65
2022/06/17 05:02:33;;;;;;;6.53;5.10;;;;;;;15.05;100.00;102459.69;5000919;28;20495;-65
2022/06/17 05:05:02;;;;;;;5.57;5.07;;;;;;;15.16;100.00;102463.75;4997153;28;20539;-67
2022/06/17 05:07:32;;;;;;;5.30;4.70;;;;;;;15.21;100.00;102471.28;5003117;28;20213;-67
2022/06/17 05:10:03;;;;;;;5.63;5.13;;;;;;;15.19;100.00;102478.75;4995878;28;20451;-68
2022/06/17 05:12:50;;;;;;;6.37;5.00;;;;;;;15.37;100.00;102471.06;4988798;28;21792;-68
2022/06/17 05:15:18;;;;;;;5.03;4.53;;;;;;;15.33;100.00;102475.16;4992278;28;20783;-68
2022/06/17 05:17:44;;;;;;;6.83;5.40;;;;;;;15.13;100.00;102447.94;5004126;28;20467;-67
2022/06/17 05:20:13;;;;;;;5.90;5.30;;;;;;;15.23;100.00;102443.03;5001582;28;20810;-65
2022/06/17 05:22:44;;;;;;;5.53;4.63;;;;;;;15.43;100.00;102470.31;5002729;28;20205;-65
2022/06/17 05:25:22;;;;;;;5.70;5.10;;;;;;;15.53;100.00;102461.88;5001558;28;20466;-65
2022/06/17 05:27:48;;;;;;;7.00;5.30;;;;;;;15.10;100.00;102359.97;5000085;28;20463;-67
2022/06/17 05:30:14;;;;;;;7.10;4.57;;;;;;;15.69;100.00;102458.13;5001012;28;20459;-67
2022/06/17 05:32:41;;;;;;;6.20;5.57;;;;;;;15.70;100.00;102467.91;5000782;28;20173;-68
2022/06/17 05:35:07;;;;;;;8.30;6.17;;;;;;;15.74;100.00;102463.78;5002867;28;20239;-67
2022/06/17 05:37:32;;;;;;;8.30;5.20;;;;;;;15.84;100.00;102466.16;5008575;28;20452;-68
2022/06/17 05:39:57;;;;;;;6.13;4.90;;;;;;;15.89;100.00;102461.00;5006994;28;20240;-67
2022/06/17 05:42:23;;;;;;;11.30;7.07;;;;;;;15.88;100.00;102454.78;5002402;28;20680;-68
2022/06/17 05:44:48;;;;;;;12.53;6.20;;;;;;;15.96;100.00;102451.06;4999266;28;20189;-68
2022/06/17 05:47:14;;;;;;;7.63;6.33;;;;;;;15.97;100.00;102464.41;4995255;28;20185;-68
2022/06/17 05:49:40;;;;;;;7.83;5.83;;;;;;;16.00;100.00;102455.06;5002808;28;20283;-67
2022/06/17 05:52:06;;;;;;;9.53;5.93;;;;;;;15.94;100.00;102437.75;5001158;28;20240;-67
2022/06/17 05:54:32;;;;;;;8.10;5.00;;;;;;;16.07;100.00;102453.25;5005913;28;20463;-67
2022/06/17 05:56:57;;;;;;;7.13;5.57;;;;;;;16.12;100.00;102453.50;5003743;28;20437;-67
2022/06/17 05:59:22;;;;;;;6.30;5.33;;;;;;;16.18;100.00;102449.19;5003917;28;20204;-67
2022/06/17 06:01:48;;;;;;;7.03;5.67;;;;;;;16.12;100.00;102444.56;5000076;28;20638;-65
2022/06/17 06:04:13;;;;;;;7.93;6.37;;;;;;;16.18;100.00;102457.28;4990419;28;20204;-65
2022/06/17 06:06:39;;;;;;;5.80;5.20;;;;;;;16.19;100.00;102445.41;5004318;28;20185;-66
2022/06/17 06:09:04;;;;;;;7.63;6.20;;;;;;;16.16;100.00;102432.28;4998066;28;20200;-65
2022/06/17 06:11:29;;;;;;;7.00;6.30;;;;;;;16.34;100.00;102458.84;4993415;28;21369;-66
2022/06/17 06:13:55;;;;;;;8.97;6.23;;;;;;;16.34;100.00;102456.16;4998915;28;20203;-66
2022/06/17 06:16:20;;;;;;;7.10;5.70;;;;;;;16.43;100.00;102452.25;5000495;28;20444;-66
2022/06/17 06:18:47;;;;;;;10.33;6.23;;;;;;;16.32;100.00;102431.16;4996970;28;20708;-69
2022/06/17 06:21:13;;;;;;;8.20;6.20;;;;;;;16.42;100.00;102442.47;4997467;28;20193;-67
2022/06/17 06:23:41;;;;;;;8.73;5.93;;;;;;;16.45;100.00;102439.34;4992775;28;20475;-69
2022/06/17 06:26:08;;;;;;;12.50;6.17;;;;;;;16.49;100.00;102449.59;5001498;28;21073;-69
2022/06/17 06:28:34;;;;;;;8.03;6.60;;;;;;;16.52;100.00;102452.94;4992708;28;20590;-69
2022/06/17 06:31:06;;;;;;;8.00;4.97;;;;;;;16.43;100.00;102426.03;4998492;28;20519;-69
2022/06/17 06:33:32;;;;;;;7.77;5.77;;;;;;;16.63;100.00;102453.19;4996429;28;20435;-69
2022/06/17 06:35:59;;;;;;;8.77;5.50;;;;;;;16.68;100.00;102450.72;5002085;28;20440;-69
2022/06/17 06:38:25;;;;;;;7.60;5.47;;;;;;;16.70;100.00;102437.84;4992496;28;21030;-69
2022/06/17 06:40:50;;;;;;;8.17;5.30;;;;;;;16.50;100.00;102409.81;4998724;28;20440;-69
2022/06/17 06:43:19;;;;;;;6.73;4.60;;;;;;;16.77;100.00;102440.59;5001607;28;20200;-69
2022/06/17 06:45:47;;;;;;;6.13;5.47;;;;;;;16.75;100.00;102449.94;5001673;28;20185;-71
2022/06/17 06:48:16;;;;;;;4.90;4.50;;;;;;;16.80;100.00;102440.19;4998541;28;20487;-72
2022/06/17 06:50:42;;;;;;;5.20;4.47;;;;;;;16.43;100.00;102388.13;5002629;28;20436;-71
2022/06/17 06:53:08;;;;;;;5.70;4.23;;;;;;;16.83;100.00;102439.78;4994138;28;20459;-71
2022/06/17 06:55:34;;;;;;;5.57;4.03;;;;;;;16.87;100.00;102446.50;4995152;28;20192;-72
2022/06/17 06:58:02;;;;;;;6.47;5.13;;;;;;;16.57;100.00;102388.16;5000341;28;20460;-71
2022/06/17 07:00:37;;;;;;;7.50;5.13;;;;;;;16.94;100.00;102452.78;4998120;28;20512;-71
2022/06/17 07:03:03;;;;;;;8.07;5.50;;;;;;;16.76;100.00;102414.56;5003211;28;20471;-74
2022/06/17 07:05:29;;;;;;;5.90;4.93;;;;;;;16.98;100.00;102447.81;5001132;28;20818;-74
2022/06/17 07:08:00;;;;;;;6.77;4.90;;;;;;;16.92;100.00;102427.75;4996529;28;20205;-73
2022/06/17 07:10:29;;;;;;;5.30;4.77;;;;;;;16.29;100.00;102313.25;4990797;28;20885;-73
2022/06/17 07:12:55;;;;;;;7.33;5.30;;;;;;;15.58;100.00;102202.50;5000866;28;20447;-73
2022/06/17 07:15:22;;;;;;;6.00;4.87;;;;;;;15.64;100.00;102220.63;5006946;28;20436;-73
2022/06/17 07:18:02;;;;;;;8.00;5.00;;;;;;;17.07;100.00;102426.78;5004354;28;20207;-73
2022/06/17 07:20:37;;;;;;;7.63;4.00;;;;;;;17.22;100.00;102445.59;5005863;28;20431;-73
2022/06/17 07:23:13;;;;;;;9.13;4.80;;;;;;;17.19;100.00;102430.56;5003255;28;20452;-73
2022/06/17 07:25:39;;;;;;;5.37;4.40;;;;;;;17.12;100.00;102410.72;5001966;28;20936;-73
2022/06/17 07:28:06;;;;;;;5.90;5.30;;;;;;;17.02;100.00;102386.72;5001551;28;20471;-73
2022/06/17 07:30:34;;;;;;;5.63;4.63;;;;;;;17.36;100.00;102433.75;5001884;28;20444;-73
2022/06/17 07:32:59;;;;;;;4.43;4.03;;;;;;;17.43;100.00;102431.03;4999185;28;20503;-73
2022/06/17 07:35:25;;;;;;;6.63;5.30;;;;;;;16.87;100.00;102343.50;5006067;28;20427;-73
2022/06/17 07:40:35;;;;;;;9.20;5.27;;;;;;;17.48;100.00;102442.09;5006457;28;20184;-73
2022/06/17 07:43:01;;;;;;;5.53;5.03;;;;;;;17.34;100.00;102398.69;5000900;28;20468;-73
2022/06/17 07:45:28;;;;;;;7.37;6.00;;;;;;;17.59;100.00;102425.22;5003876;28;20440;-73
2022/06/17 07:47:55;;;;;;;7.23;5.70;;;;;;;16.59;100.00;102267.75;5000489;28;20288;-73
2022/06/17 07:50:25;;;;;;;9.00;5.10;;;;;;;17.56;100.00;102393.91;5003117;28;20447;-73
2022/06/17 07:52:50;;;;;;;7.37;5.40;;;;;;;17.29;100.00;102355.06;4997268;28;20565;-73
2022/06/17 07:55:16;;;;;;;9.53;6.17;;;;;;;17.13;100.00;102317.50;4997671;28;20627;-72
2022/06/17 07:57:43;;;;;;;10.60;5.30;;;;;;;17.67;100.00;102383.47;4991850;28;20720;-73
2022/06/17 08:00:30;;;;;;;6.63;4.73;;;;;;;17.33;100.00;102314.81;4993289;28;20212;-73
2022/06/17 08:02:56;;;;;;;7.43;5.47;;;;;;;17.85;100.00;102383.72;5001713;28;20845;-73
2022/06/17 08:05:22;;;;;;;11.37;5.13;;;;;;;17.94;100.00;102387.06;5005259;28;20443;-72
2022/06/17 08:07:49;;;;;;;6.20;4.90;;;;;;;18.06;100.00;102404.38;5003691;28;20263;-74
2022/06/17 08:10:16;;;;;;;7.03;5.00;;;;;;;18.09;100.00;102401.22;5006702;28;20587;-73
2022/06/17 08:12:42;;;;;;;8.93;5.27;;;;;;;17.79;100.00;102354.69;5000296;28;20519;-74
2022/06/17 08:15:08;;;;;;;7.77;5.47;;;;;;;17.95;100.00;102386.00;5000292;28;20455;-73
2022/06/17 08:17:33;;;;;;;11.53;5.30;;;;;;;17.84;100.00;102336.72;4994100;28;20212;-73
2022/06/17 08:19:59;;;;;;;6.30;4.70;;;;;;;16.87;100.00;102175.50;5006920;28;20435;-73
2022/06/17 08:22:25;;;;;;;7.03;4.23;;;;;;;18.15;100.00;102361.53;5009298;28;20185;-74
2022/06/17 08:24:55;;;;;;;6.17;4.60;;;;;;;18.09;100.00;102327.09;5012088;28;20173;-74
2022/06/17 08:27:21;;;;;;;5.50;4.87;;;;;;;18.24;100.00;102341.25;5005989;28;20550;-73
2022/06/17 08:29:46;;;;;;;6.17;5.03;;;;;;;18.16;100.00;102346.91;5010150;28;20519;-74
2022/06/17 08:35:19;;;;;;;7.07;5.47;;;;;;;18.73;100.00;102405.91;4939629;28;20179;-74
2022/06/17 08:37:46;;;;;;;7.97;4.67;;;;;;;18.71;100.00;102386.22;4942051;28;21134;-74
2022/06/17 08:40:37;;;;;;;8.20;4.10;;;;;;;18.74;100.00;102387.69;4971482;28;20649;-74
2022/06/17 08:43:44;;;;;;;5.50;4.10;;;;;;;18.99;100.00;102385.06;5001666;28;20460;-74
2022/06/17 08:46:30;;;;;;;7.17;4.47;;;;;;;18.95;100.00;102372.97;4983759;28;20540;-74
2022/06/17 08:48:56;;;;;;;5.93;5.00;;;;;;;19.06;100.00;102385.03;5000768;28;20529;-73
2022/06/17 08:51:33;;;;;;;4.90;4.40;;;;;;;19.08;100.00;102355.75;5001228;28;20533;-74
2022/06/17 08:54:24;;;;;;;5.47;4.40;;;;;;;19.24;100.00;102377.00;5016404;28;20185;-74
2022/06/17 08:57:01;;;;;;;7.67;5.10;;;;;;;19.01;100.00;102336.75;5004674;28;20416;-74
2022/06/17 08:59:44;;;;;;;7.00;5.00;;;;;;;19.01;100.00;102342.19;4998388;28;20453;-73
2022/06/17 09:02:33;;;;;;;7.13;4.70;;;;;;;18.98;100.00;102326.31;5005931;28;20464;-73
2022/06/17 09:05:15;;;;;;;5.17;4.33;;;;;;;19.12;100.00;102341.50;5002936;28;20444;-73
2022/06/17 09:07:46;;;;;;;4.07;3.63;;;;;;;19.43;100.00;102365.13;5000523;28;20979;-73
2022/06/17 09:10:20;;;;;;;5.93;4.00;;;;;;;19.57;100.00;102365.84;4994923;28;20995;-75
2022/06/17 09:13:23;;;;;;;9.63;4.90;;;;;;;19.75;100.00;102370.53;5015123;28;20481;-73
2022/06/17 09:15:56;;;;;;;5.50;4.53;;;;;;;19.66;100.00;102368.34;5008162;28;20454;-72
2022/06/17 09:18:27;;;;;;;8.87;4.60;;;;;;;19.92;100.00;102367.25;5009799;28;20528;-72
2022/06/17 09:21:13;;;;;;;9.83;4.43;;;;;;;19.94;100.00;102368.72;5004817;28;20818;-74
2022/06/17 09:23:39;;;;;;;7.10;5.60;;;;;;;19.89;100.00;102370.44;5002428;28;20456;-73
2022/06/17 09:26:13;;;;;;;5.13;4.20;;;;;;;19.45;100.00;102283.28;4999848;28;20493;-72
2022/06/17 09:28:46;;;;;;;6.80;4.40;;;;;;;19.11;100.00;102228.31;5001144;28;20455;-73
2022/06/17 09:31:18;;;;;;;5.60;4.30;;;;;;;19.76;100.00;102331.41;5002065;28;20429;-73
2022/06/17 09:33:47;;;;;;;4.60;3.50;;;;;;;20.08;100.00;102344.91;5002318;28;20467;-72
2022/06/17 09:36:51;;;;;;;5.43;3.33;;;;;;;20.01;100.00;102325.06;4999792;28;20483;-73
2022/06/17 09:39:41;;;;;;;6.83;4.10;;;;;;;20.11;100.00;102313.66;5003587;28;20494;-73
2022/06/17 09:42:17;;;;;;;6.63;3.77;;;;;;;20.22;100.00;102330.06;5003437;28;20452;-73
2022/06/17 09:45:05;;;;;;;7.40;4.27;;;;;;;19.63;100.00;102236.22;5001299;28;20442;-73
2022/06/17 09:47:38;;;;;;;6.30;4.60;;;;;;;20.24;100.00;102330.66;4989564;28;21015;-73
2022/06/17 09:50:16;;;;;;;9.90;5.30;;;;;;;19.64;100.00;102237.84;4993403;28;20448;-73
2022/06/17 09:52:45;;;;;;;5.90;4.10;;;;;;;20.25;100.00;102313.28;4981623;28;22367;-72
2022/06/17 09:55:23;;;;;;;4.97;4.40;;;;;;;20.60;100.00;102319.97;4996562;28;20534;-72
2022/06/17 09:58:11;;;;;;;8.80;4.50;;;;;;;20.36;100.00;102289.84;5002753;28;20467;-73
2022/06/17 10:00:50;;;;;;;4.60;4.20;;;;;;;20.54;100.00;102332.66;4996328;28;20432;-73
2022/06/17 10:03:23;;;;;;;7.73;4.37;;;;;;;20.65;100.00;102318.22;5001656;28;20585;-73
2022/06/17 10:06:07;;;;;;;6.50;5.00;;;;;;;20.70;100.00;102332.00;5007389;28;20431;-73
2022/06/17 10:08:43;;;;;;;5.03;3.63;;;;;;;20.68;100.00;102325.13;5007898;28;20439;-73
2022/06/17 10:11:20;;;;;;;6.27;4.27;;;;;;;20.74;100.00;102325.06;5008600;28;20412;-73
2022/06/17 10:13:51;;;;;;;4.03;3.70;;;;;;;20.71;100.00;102321.94;5009419;28;20420;-73
2022/06/17 10:19:26;;;;;;;4.90;3.67;;;;;;;20.97;100.00;102321.59;5007967;28;20507;-73
2022/06/17 10:22:04;;;;;;;7.23;4.00;;;;;;;21.04;100.00;102318.75;5008520;28;20434;-73
2022/06/17 10:24:51;;;;;;;8.47;4.10;;;;;;;20.97;100.00;102318.00;5008215;28;20452;-73
2022/06/17 10:27:23;;;;;;;4.87;4.13;;;;;;;20.91;100.00;102338.03;5008512;28;20967;-73
2022/06/17 10:30:11;;;;;;;6.83;4.17;;;;;;;20.89;100.00;102337.44;5007186;28;20420;-73
2022/06/17 10:32:40;;;;;;;6.83;4.77;;;;;;;20.56;100.00;102292.34;5008538;28;20423;-72
2022/06/17 10:35:20;;;;;;;4.30;3.90;;;;;;;20.82;100.00;102325.78;5008529;28;20431;-73
2022/06/17 10:37:46;;;;;;;4.73;3.30;;;;;;;20.52;100.00;102267.47;5008638;28;20452;-73
2022/06/17 10:40:16;;;;;;;6.00;3.77;;;;;;;21.06;100.00;102343.03;5007401;28;21011;-72
2022/06/17 10:42:46;;;;;;;5.13;4.63;;;;;;;20.73;100.00;102307.00;5007567;28;20200;-75
2022/06/17 10:45:15;;;;;;;3.47;3.13;;;;;;;20.67;100.00;102305.22;5009246;28;20420;-73
2022/06/17 10:47:54;;;;;;;4.80;3.60;;;;;;;20.86;100.00;102330.56;5008246;28;20447;-72
2022/06/17 10:50:23;;;;;;;6.43;3.60;;;;;;;21.02;100.00;102306.41;5007109;28;20415;-73
2022/06/17 10:52:56;;;;;;;6.07;4.70;;;;;;;20.72;100.00;102280.00;5008475;28;20440;-72
2022/06/17 10:55:33;;;;;;;4.20;3.80;;;;;;;20.89;100.00;102302.81;5008204;28;20420;-73
2022/06/17 10:58:10;;;;;;;6.27;4.17;;;;;;;20.82;100.00;102293.88;5007725;28;20488;-74
2022/06/17 11:00:52;;;;;;;7.23;3.83;;;;;;;21.03;100.00;102336.19;5007261;28;20477;-73
2022/06/17 11:03:31;;;;;;;3.20;2.87;;;;;;;20.98;100.00;102353.25;5005572;28;20513;-73
2022/06/17 11:06:12;;;;;;;5.10;3.83;;;;;;;20.79;100.00;102329.78;5003490;28;20447;-73
2022/06/17 11:08:55;;;;;;;7.23;3.87;;;;;;;20.99;100.00;102337.69;5001690;28;20451;-73
2022/06/17 11:14:40;;;;;;;3.87;2.67;;;;;;;20.99;100.00;102343.97;4999790;28;20586;-73
2022/06/17 11:17:18;;;;;;;5.37;3.23;;;;;;;21.08;100.00;102340.94;4998383;28;20479;-73
2022/06/17 11:19:47;;;;;;;3.70;3.20;;;;;;;21.02;100.00;102290.84;4991699;28;20523;-73
2022/06/17 11:22:30;;;;;;;3.73;3.30;;;;;;;20.79;100.00;102250.72;4989413;28;20573;-73
2022/06/17 11:25:27;;;;;;;6.43;3.77;;;;;;;21.36;100.00;102343.03;4999362;28;20443;-73
2022/06/17 11:27:56;;;;;;;3.97;3.67;;;;;;;21.38;100.00;102339.03;5001184;28;20464;-75
2022/06/17 11:30:34;;;;;;;7.60;3.47;;;;;;;21.52;100.00;102331.44;5007908;28;20841;-74
2022/06/17 11:33:00;;;;;;;4.30;3.50;;;;;;;21.52;100.00;102327.88;5007082;28;20412;-74
2022/06/17 11:35:35;;;;;;;4.77;4.17;;;;;;;21.43;100.00;102291.91;5005099;28;20447;-75
2022/06/17 11:38:10;;;;;;;6.63;3.80;;;;;;;21.59;100.00;102314.94;5006884;28;20489;-76
2022/06/17 11:40:47;;;;;;;6.00;3.70;;;;;;;21.63;100.00;102316.13;5006940;28;20890;-75
2022/06/17 11:43:25;;;;;;;6.60;4.10;;;;;;;21.67;100.00;102331.00;5006906;28;20459;-75
2022/06/17 11:45:50;;;;;;;5.57;3.87;;;;;;;21.66;100.00;102323.84;5007835;28;21239;-75
2022/06/17 11:48:20;;;;;;;3.97;3.30;;;;;;;21.47;100.00;102278.63;5000697;28;20459;-75
2022/06/17 11:51:04;;;;;;;4.13;3.73;;;;;;;21.64;100.00;102299.53;4997673;28;20182;-75
2022/06/17 11:53:40;;;;;;;5.40;4.00;;;;;;;21.85;100.00;102305.44;5007677;28;20934;-75